TimeCDT,TemperatureF,Dew PointF,Humidity,Sea Level PressureIn,VisibilityMPH,Wind Direction,Wind SpeedMPH,Gust SpeedMPH,PrecipitationIn,Events,Conditions,WindDirDegrees,DateUTC
12:53 AM,66.0,63.0,90,29.61,10.0,ESE,9.2,-,0.02,,Mostly Cloudy,120,2013-06-13 05:53:00
1:53 AM,64.9,63.0,93,29.64,10.0,WNW,4.6,-,N/A,,Clear,290,2013-06-13 06:53:00
2:53 AM,64.0,62.1,93,29.66,10.0,NW,6.9,-,N/A,,Clear,310,2013-06-13 07:53:00
3:07 AM,64.4,62.6,94,29.68,9.0,NNW,13.8,19.6,N/A,,Scattered Clouds,330,2013-06-13 08:07:00
3:15 AM,62.6,60.8,94,29.68,6.0,NNW,8.1,-,N/A,,Mostly Cloudy,330,2013-06-13 08:15:00
3:53 AM,61.0,60.1,97,29.72,1.8,NNW,9.2,16.1,0.00,Rain,Light Rain,340,2013-06-13 08:53:00
4:02 AM,60.8,60.8,100,29.73,0.8,NNW,10.4,19.6,0.00,,Overcast,340,2013-06-13 09:02:00
4:49 AM,60.8,60.8,100,29.73,1.0,NNW,8.1,-,0.00,,Overcast,330,2013-06-13 09:49:00
4:53 AM,61.0,60.1,97,29.72,1.0,NNW,9.2,16.1,0.00,,Overcast,330,2013-06-13 09:53:00
5:21 AM,60.8,59.0,94,29.74,3.0,NNW,4.6,17.3,N/A,,Overcast,340,2013-06-13 10:21:00
5:53 AM,57.9,55.9,93,29.75,9.0,North,10.4,17.3,0.01,,Overcast,350,2013-06-13 10:53:00
6:53 AM,57.9,55.9,93,29.78,7.0,NNW,10.4,17.3,N/A,,Overcast,340,2013-06-13 11:53:00
7:00 AM,57.2,57.2,100,29.79,7.0,North,10.4,-,N/A,,Overcast,350,2013-06-13 12:00:00
7:38 AM,60.8,57.2,88,29.82,10.0,North,11.5,19.6,N/A,,Overcast,350,2013-06-13 12:38:00
7:53 AM,61.0,57.9,90,29.82,10.0,North,10.4,16.1,N/A,,Overcast,360,2013-06-13 12:53:00
8:53 AM,66.9,60.1,79,29.85,10.0,North,8.1,-,N/A,,Clear,350,2013-06-13 13:53:00
9:53 AM,70.0,57.0,63,29.87,10.0,North,10.4,-,N/A,,Clear,350,2013-06-13 14:53:00
10:53 AM,69.1,57.0,65,29.90,10.0,NW,15.0,21.9,N/A,,Clear,320,2013-06-13 15:53:00
11:53 AM,68.0,54.0,61,29.92,10.0,NNW,12.7,20.7,N/A,,Clear,330,2013-06-13 16:53:00
12:53 PM,-9999,-9999,N/A,29.95,-9999.0,North,-9999.0,-,N/A,,Unknown,0,2013-06-13 17:53:00
1:53 PM,66.0,55.0,68,29.97,-9999.0,NW,13.8,21.9,N/A,,Unknown,320,2013-06-13 18:53:00
2:53 PM,64.9,54.0,68,29.99,10.0,North,15.0,21.9,N/A,,Clear,360,2013-06-13 19:53:00
3:53 PM,68.0,54.0,61,29.99,10.0,North,10.4,17.3,N/A,,Clear,350,2013-06-13 20:53:00
4:53 PM,66.9,54.0,63,29.99,10.0,NNE,11.5,23.0,N/A,,Clear,20,2013-06-13 21:53:00
5:53 PM,66.0,52.0,60,29.99,10.0,North,11.5,20.7,N/A,,Partly Cloudy,350,2013-06-13 22:53:00
6:53 PM,64.9,53.1,65,30.00,10.0,North,11.5,18.4,N/A,,Clear,360,2013-06-13 23:53:00
7:53 PM,62.1,52.0,70,30.01,10.0,North,6.9,-,N/A,,Clear,350,2013-06-14 00:53:00
8:53 PM,59.0,52.0,78,30.02,10.0,NNW,8.1,-,N/A,,Clear,330,2013-06-14 01:53:00
9:53 PM,57.9,52.0,81,30.04,10.0,NNW,8.1,-,N/A,,Clear,340,2013-06-14 02:53:00
10:53 PM,57.0,52.0,83,30.04,10.0,NW,6.9,-,N/A,,Clear,320,2013-06-14 03:53:00
11:53 PM,55.9,51.1,84,30.03,10.0,NNW,9.2,-,N/A,,Clear,340,2013-06-14 04:53:00